TimeMDT,TemperatureF,Dew PointF,Humidity,Sea Level PressureIn,VisibilityMPH,Wind Direction,Wind SpeedMPH,Gust SpeedMPH,PrecipitationIn,Events,Conditions,WindDirDegrees,DateUTC
12:19 AM,30.2,14.0,51,30.43,-9999.0,WSW,18.4,-,N/A,,Overcast,250,2013-03-29 06:19:00
12:39 AM,30.2,14.0,51,30.43,-9999.0,WSW,18.4,-,N/A,,Overcast,250,2013-03-29 06:39:00
12:59 AM,30.2,14.0,51,30.43,-9999.0,WSW,18.4,21.9,N/A,,Overcast,250,2013-03-29 06:59:00
1:19 AM,28.4,14.0,55,30.43,-9999.0,WSW,21.9,-,N/A,,Overcast,250,2013-03-29 07:19:00
1:39 AM,28.4,14.0,55,30.43,-9999.0,West,20.7,-,N/A,,Mostly Cloudy,260,2013-03-29 07:39:00
1:59 AM,28.4,14.0,55,30.43,-9999.0,WSW,19.6,-,N/A,,Unknown,250,2013-03-29 07:59:00
2:19 AM,28.4,14.0,55,30.43,-9999.0,West,23.0,-,N/A,,Clear,260,2013-03-29 08:19:00
2:39 AM,28.4,14.0,55,30.42,-9999.0,West,24.2,-,N/A,,Clear,260,2013-03-29 08:39:00
2:59 AM,28.4,14.0,55,30.42,-9999.0,West,25.3,-,N/A,,Clear,260,2013-03-29 08:59:00
3:19 AM,28.4,14.0,55,30.42,-9999.0,West,23.0,-,N/A,,Clear,260,2013-03-29 09:19:00
3:39 AM,28.4,14.0,55,30.41,-9999.0,West,20.7,27.6,N/A,,Clear,260,2013-03-29 09:39:00
3:59 AM,26.6,12.2,55,30.41,-9999.0,West,19.6,-,N/A,,Clear,270,2013-03-29 09:59:00
4:19 AM,26.6,12.2,55,30.41,-9999.0,West,17.3,-,N/A,,Clear,260,2013-03-29 10:19:00
4:39 AM,26.6,12.2,55,30.41,-9999.0,West,18.4,-,N/A,,Clear,260,2013-03-29 10:39:00
4:59 AM,26.6,12.2,55,30.41,-9999.0,West,20.7,-,N/A,,Clear,270,2013-03-29 10:59:00
5:19 AM,26.6,12.2,55,30.41,-9999.0,West,25.3,-,N/A,,Clear,270,2013-03-29 11:19:00
5:39 AM,26.6,12.2,55,30.41,-9999.0,West,25.3,29.9,N/A,,Clear,270,2013-03-29 11:39:00
5:59 AM,26.6,14.0,59,30.42,-9999.0,West,28.8,33.4,N/A,,Scattered Clouds,270,2013-03-29 11:59:00
6:19 AM,26.6,15.8,64,30.42,-9999.0,West,27.6,33.4,N/A,,Mostly Cloudy,270,2013-03-29 12:19:00
6:39 AM,24.8,15.8,69,30.42,-9999.0,West,24.2,-,N/A,,Overcast,270,2013-03-29 12:39:00
6:59 AM,24.8,17.6,74,30.43,-9999.0,West,24.2,32.2,N/A,,Overcast,270,2013-03-29 12:59:00
7:19 AM,23.0,17.6,80,30.42,-9999.0,West,26.5,-,N/A,,Mostly Cloudy,270,2013-03-29 13:19:00
7:39 AM,23.0,17.6,80,30.44,-9999.0,West,21.9,-,N/A,,Scattered Clouds,280,2013-03-29 13:39:00
7:59 AM,24.8,17.6,74,30.44,-9999.0,North,-9999.0,-,N/A,,Scattered Clouds,0,2013-03-29 13:59:00
8:19 AM,24.8,17.6,74,30.45,-9999.0,North,-9999.0,-,N/A,,Clear,0,2013-03-29 14:19:00
8:39 AM,24.8,17.6,74,30.45,-9999.0,WNW,15.0,-,N/A,,Clear,290,2013-03-29 14:39:00
8:59 AM,26.6,17.6,69,30.45,-9999.0,West,15.0,18.4,N/A,,Scattered Clouds,280,2013-03-29 14:59:00
9:19 AM,26.6,17.6,69,30.46,-9999.0,West,13.8,21.9,N/A,,Mostly Cloudy,280,2013-03-29 15:19:00
9:39 AM,28.4,19.4,69,30.45,-9999.0,West,20.7,24.2,N/A,,Mostly Cloudy,270,2013-03-29 15:39:00
9:59 AM,30.2,19.4,64,30.45,-9999.0,West,23.0,32.2,N/A,,Mostly Cloudy,270,2013-03-29 15:59:00
10:19 AM,30.2,19.4,64,30.46,-9999.0,West,20.7,32.2,N/A,,Overcast,280,2013-03-29 16:19:00
10:59 AM,32.0,19.4,60,30.46,-9999.0,West,26.5,33.4,N/A,,Clear,270,2013-03-29 16:59:00
11:19 AM,32.0,19.4,60,30.47,-9999.0,West,25.3,34.5,N/A,,Clear,260,2013-03-29 17:19:00
11:39 AM,32.0,19.4,60,30.47,-9999.0,West,28.8,33.4,N/A,,Clear,260,2013-03-29 17:39:00
11:59 AM,32.0,19.4,60,30.47,-9999.0,West,27.6,34.5,N/A,,Clear,260,2013-03-29 17:59:00
12:19 PM,32.0,19.4,60,30.46,-9999.0,West,28.8,34.5,N/A,,Clear,260,2013-03-29 18:19:00
12:39 PM,33.8,17.6,52,30.46,-9999.0,West,28.8,33.4,N/A,,Scattered Clouds,260,2013-03-29 18:39:00
12:59 PM,33.8,17.6,52,30.46,-9999.0,West,29.9,38.0,N/A,,Clear,270,2013-03-29 18:59:00
1:19 PM,33.8,17.6,52,30.46,-9999.0,West,27.6,34.5,N/A,,Clear,260,2013-03-29 19:19:00
1:39 PM,35.6,19.4,52,30.45,-9999.0,West,23.0,32.2,N/A,,Clear,260,2013-03-29 19:39:00
1:59 PM,35.6,17.6,48,30.45,-9999.0,West,29.9,35.7,N/A,,Clear,260,2013-03-29 19:59:00
2:19 PM,35.6,17.6,48,30.45,-9999.0,West,26.5,38.0,N/A,,Clear,270,2013-03-29 20:19:00
2:39 PM,35.6,17.6,48,30.44,-9999.0,West,27.6,39.1,N/A,,Clear,270,2013-03-29 20:39:00
2:59 PM,37.4,19.4,48,30.44,-9999.0,West,25.3,33.4,N/A,,Mostly Cloudy,260,2013-03-29 20:59:00
3:19 PM,35.6,17.6,48,30.43,-9999.0,West,23.0,35.7,N/A,,Overcast,260,2013-03-29 21:19:00
3:39 PM,33.8,19.4,56,30.44,-9999.0,NW,13.8,27.6,N/A,,Overcast,320,2013-03-29 21:39:00
3:59 PM,37.4,17.6,45,30.44,-9999.0,WNW,17.3,28.8,N/A,,Overcast,300,2013-03-29 21:59:00
4:19 PM,35.6,15.8,44,30.43,-9999.0,WNW,18.4,32.2,N/A,,Overcast,300,2013-03-29 22:19:00
4:59 PM,37.4,14.0,38,30.43,-9999.0,West,31.1,42.6,N/A,,Overcast,260,2013-03-29 22:59:00
5:19 PM,37.4,14.0,38,30.43,-9999.0,West,27.6,38.0,N/A,,Overcast,270,2013-03-29 23:19:00
5:39 PM,35.6,14.0,41,30.44,-9999.0,West,26.5,38.0,N/A,,Overcast,280,2013-03-29 23:39:00
5:59 PM,33.8,17.6,52,30.44,-9999.0,WSW,19.6,32.2,N/A,,Overcast,250,2013-03-29 23:59:00
6:19 PM,35.6,17.6,48,30.44,-9999.0,West,27.6,32.2,N/A,,Scattered Clouds,260,2013-03-30 00:19:00
6:39 PM,33.8,17.6,52,30.45,-9999.0,West,19.6,38.0,N/A,,Clear,260,2013-03-30 00:39:00
6:59 PM,33.8,17.6,52,30.45,-9999.0,West,24.2,32.2,N/A,,Clear,260,2013-03-30 00:59:00
7:19 PM,32.0,17.6,55,30.45,-9999.0,West,25.3,-,N/A,,Clear,270,2013-03-30 01:19:00
7:39 PM,32.0,17.6,55,30.45,-9999.0,West,17.3,-,N/A,,Scattered Clouds,270,2013-03-30 01:39:00
7:59 PM,30.2,17.6,60,30.44,-9999.0,West,24.2,-,N/A,,Scattered Clouds,270,2013-03-30 01:59:00
8:19 PM,30.2,17.6,60,30.45,-9999.0,West,18.4,-,N/A,,Clear,270,2013-03-30 02:19:00
8:39 PM,30.2,17.6,60,30.45,-9999.0,West,17.3,-,N/A,,Clear,270,2013-03-30 02:39:00
8:59 PM,30.2,17.6,60,30.45,-9999.0,West,21.9,-,N/A,,Clear,280,2013-03-30 02:59:00
9:19 PM,30.2,17.6,60,30.45,-9999.0,West,20.7,-,N/A,,Clear,280,2013-03-30 03:19:00
9:39 PM,30.2,17.6,60,30.45,-9999.0,West,20.7,25.3,N/A,,Clear,280,2013-03-30 03:39:00
9:59 PM,30.2,17.6,60,30.46,-9999.0,West,25.3,29.9,N/A,,Clear,280,2013-03-30 03:59:00
10:19 PM,30.2,17.6,60,30.46,-9999.0,West,20.7,-,N/A,,Clear,280,2013-03-30 04:19:00
10:39 PM,28.4,17.6,64,30.47,-9999.0,West,12.7,-,N/A,,Clear,280,2013-03-30 04:39:00
10:59 PM,28.4,17.6,64,30.48,-9999.0,West,8.1,-,N/A,,Clear,270,2013-03-30 04:59:00
11:19 PM,28.4,19.4,69,30.48,-9999.0,West,15.0,-,N/A,,Scattered Clouds,280,2013-03-30 05:19:00
11:39 PM,28.4,19.4,69,30.48,-9999.0,West,16.1,21.9,N/A,,Overcast,260,2013-03-30 05:39:00
11:59 PM,28.4,19.4,69,30.48,-9999.0,West,21.9,-,N/A,,Overcast,280,2013-03-30 05:59:00